TAF Text Data
IDs:
Format:
Raw Decoded Include METAR

Data at: 0607 UTC 07 Dec 2022

KHIE 070534Z 0706/0806 17010G19KT P6SM VCSH SCT030 OVC060
  FM070800 15010G19KT 5SM -SHRA BR SCT020 BKN030
  FM071200 15009G20KT 6SM -SHRA SCT030 OVC050
  FM072300 27005KT 3SM -SHRA BR BKN005 OVC007